^^
Station Historical Data
Daily Summary for March 16, 2017 Units:  English    Metric   Both
« Previous Day
Next Day »
Daily Weekly Monthly Yearly Custom
  High: Low: Average:
Temperature: 37.9 °F 22.5 °F 29.5 °F
Dew Point: 14.7 °F 11.2 °F 12.6 °F
Humidity: 66% 36% 50%
Wind Speed: 8.0mph 1.0mph 3.5mph
Wind Gust: 21.0mph - -
Wind- - SSW
Pressure: 30.13 in 29.87 in -
Precipitation: 0.01 in    
Historical Graphs
 
 
Tabular Data for March 16, 2017
Time Temperature Dew Point Pressure Wind Wind Speed Wind Gust Humidity Rainfall Rate (Hourly) Conditions
00:00 24.0 °F 12.1 °F 29.87 in SW 2.0 mph 12.0 mph 60% 0.00 in SCT
00:15 24.0 °F 12.1 °F 29.87 in WSW 2.0 mph 12.0 mph 60% 0.00 in SCT
00:30 24.0 °F 12.1 °F 29.88 in WSW 5.0 mph 12.0 mph 60% 0.00 in SCT
00:45 24.0 °F 12.1 °F 29.88 in SW 3.0 mph 17.0 mph 60% 0.00 in SCT
01:00 23.8 °F 12.3 °F 29.89 in SW 6.0 mph 15.0 mph 61% 0.00 in SCT
02:15 23.7 °F 14.0 °F 29.90 in WSW 2.0 mph 20.0 mph 66% 0.00 in SCT
02:30 23.6 °F 13.2 °F 29.90 in SW 7.0 mph 17.0 mph 64% 0.00 in SCT
02:45 23.7 °F 12.6 °F 29.90 in WSW 7.0 mph 14.0 mph 62% 0.00 in SCT
03:00 23.7 °F 12.6 °F 29.90 in WSW 3.0 mph 15.0 mph 62% 0.00 in SCT
03:15 23.7 °F 12.2 °F 29.90 in SW 6.0 mph 15.0 mph 61% 0.00 in BKN
03:30 23.6 °F 11.7 °F 29.90 in SW 8.0 mph 18.0 mph 60% 0.00 in BKN
03:45 23.5 °F 12.0 °F 29.90 in WSW 5.0 mph 13.0 mph 61% 0.00 in BKN
04:00 23.5 °F 12.0 °F 29.90 in SW 3.0 mph 16.0 mph 61% 0.00 in BKN
04:15 23.4 °F 11.9 °F 29.90 in SW 5.0 mph 14.0 mph 61% 0.00 in FEW
04:30 23.2 °F 11.7 °F 29.91 in WSW 2.0 mph 14.0 mph 61% 0.00 in FEW
04:45 23.1 °F 12.0 °F 29.91 in SW 3.0 mph 15.0 mph 62% 0.00 in FEW
05:00 23.0 °F 11.9 °F 29.91 in SW 5.0 mph 13.0 mph 62% 0.00 in FEW
05:15 23.0 °F 11.9 °F 29.91 in SW 6.0 mph 14.0 mph 62% 0.00 in FEW
05:30 22.9 °F 11.8 °F 29.92 in SW 5.0 mph 16.0 mph 62% 0.00 in FEW
05:45 22.9 °F 11.8 °F 29.92 in SW 5.0 mph 15.0 mph 62% 0.00 in FEW
06:00 22.8 °F 12.1 °F 29.92 in SW 1.0 mph 15.0 mph 63% 0.00 in FEW
06:15 22.7 °F 12.0 °F 29.93 in SSW 3.0 mph 12.0 mph 63% 0.00 in CLR
06:30 22.7 °F 12.0 °F 29.93 in WSW 3.0 mph 12.0 mph 63% 0.00 in CLR
06:45 22.5 °F 11.8 °F 29.94 in SW 2.0 mph 12.0 mph 63% 0.00 in CLR
07:00 22.5 °F 11.8 °F 29.94 in SW 2.0 mph 13.0 mph 63% 0.00 in CLR
07:15 22.5 °F 11.8 °F 29.95 in WSW 5.0 mph 13.0 mph 63% 0.00 in FEW
07:30 22.5 °F 12.1 °F 29.95 in WSW 2.0 mph 10.0 mph 64% 0.00 in FEW
07:45 22.6 °F 12.2 °F 29.96 in SW 6.0 mph 12.0 mph 64% 0.00 in FEW
08:00 22.7 °F 12.3 °F 29.96 in SW 6.0 mph 12.0 mph 64% 0.00 in FEW
08:15 22.9 °F 12.1 °F 29.96 in WSW 2.0 mph 13.0 mph 63% 0.00 in FEW
08:30 23.2 °F 12.5 °F 29.96 in SSW 1.0 mph 12.0 mph 63% 0.00 in FEW
08:45 23.7 °F 12.6 °F 29.97 in WSW 1.0 mph 15.0 mph 62% 0.00 in FEW
09:00 24.3 °F 12.8 °F 29.97 in SW 3.0 mph 9.0 mph 61% 0.00 in FEW
09:30 26.6 °F 13.8 °F 29.96 in WSW 3.0 mph 12.0 mph 58% 0.00 in FEW
09:45 26.9 °F 13.3 °F 29.97 in SSW 3.0 mph 14.0 mph 56% 0.00 in FEW
10:00 27.4 °F 12.9 °F 29.97 in NNW 3.0 mph 15.0 mph 54% 0.00 in FEW
10:15 27.9 °F 13.0 °F 29.97 in SE 2.0 mph 13.0 mph 53% 0.00 in FEW
10:30 28.0 °F 12.6 °F 29.97 in West 2.0 mph 17.0 mph 52% 0.00 in FEW
10:45 28.7 °F 12.8 °F 29.96 in NE 5.0 mph 12.0 mph 51% 0.00 in FEW
11:00 29.4 °F 13.0 °F 29.97 in NW 2.0 mph 13.0 mph 50% 0.00 in FEW
11:15 30.0 °F 12.2 °F 29.97 in SSW 5.0 mph 12.0 mph 47% 0.00 in FEW
11:30 30.7 °F 12.3 °F 29.97 in WSW 3.0 mph 14.0 mph 46% 0.00 in FEW
11:45 31.1 °F 12.7 °F 29.97 in WSW 6.0 mph 14.0 mph 46% 0.00 in FEW
12:00 31.5 °F 12.5 °F 29.97 in West 5.0 mph 13.0 mph 45% 0.00 in FEW
12:15 32.4 °F 13.4 °F 29.97 in WSW 2.0 mph 10.0 mph 45% 0.00 in FEW
12:30 32.4 °F 12.4 °F 29.97 in WSW 5.0 mph 13.0 mph 43% 0.00 in FEW
12:45 32.4 °F 11.8 °F 29.97 in SSW 3.0 mph 13.0 mph 42% 0.00 in FEW
13:00 33.0 °F 12.3 °F 29.97 in West 6.0 mph 12.0 mph 42% 0.00 in FEW
13:15 32.8 °F 12.2 °F 29.97 in West 3.0 mph 20.0 mph 42% 0.00 in FEW
13:30 33.3 °F 12.1 °F 29.97 in SW 5.0 mph 17.0 mph 41% 0.00 in FEW
13:45 34.1 °F 13.9 °F 29.97 in SSE 2.0 mph 14.0 mph 43% 0.00 in FEW
14:00 34.3 °F 13.0 °F 29.96 in SW 5.0 mph 14.0 mph 41% 0.00 in FEW
14:15 34.7 °F 13.4 °F 29.96 in NE 3.0 mph 21.0 mph 41% 0.00 in FEW
14:30 34.8 °F 12.3 °F 29.96 in North 6.0 mph 14.0 mph 39% 0.00 in FEW
14:45 35.7 °F 13.7 °F 29.95 in WSW 3.0 mph 13.0 mph 40% 0.00 in FEW
15:00 36.0 °F 13.4 °F 29.95 in West 5.0 mph 13.0 mph 39% 0.00 in FEW
15:15 36.5 °F 13.9 °F 29.95 in WSW 5.0 mph 16.0 mph 39% 0.00 in FEW
15:30 36.6 °F 14.0 °F 29.95 in SW 2.0 mph 13.0 mph 39% 0.00 in FEW
15:45 36.8 °F 12.9 °F 29.95 in West 3.0 mph 12.0 mph 37% 0.00 in FEW
16:00 36.9 °F 12.4 °F 29.95 in NE 6.0 mph 13.0 mph 36% 0.00 in FEW
16:15 37.3 °F 12.7 °F 29.95 in West 5.0 mph 13.0 mph 36% 0.00 in FEW
16:30 37.4 °F 12.8 °F 29.95 in WNW 5.0 mph 12.0 mph 36% 0.01 in RA
16:45 37.6 °F 13.0 °F 29.95 in West 3.0 mph 13.0 mph 36% 0.00 in FEW
17:00 37.9 °F 13.3 °F 29.95 in SSE 5.0 mph 12.0 mph 36% 0.00 in FEW
17:15 37.7 °F 13.1 °F 29.96 in NNE 6.0 mph 15.0 mph 36% 0.00 in FEW
17:30 37.7 °F 13.1 °F 29.96 in West 3.0 mph 18.0 mph 36% 0.00 in FEW
17:45 37.3 °F 12.8 °F 29.96 in SW 6.0 mph 16.0 mph 36% 0.00 in FEW
18:00 37.4 °F 12.8 °F 29.97 in WSW 3.0 mph 16.0 mph 36% 0.00 in FEW
18:15 37.3 °F 12.7 °F 29.97 in West 3.0 mph 14.0 mph 36% 0.00 in FEW
18:45 36.3 °F 11.9 °F 29.99 in ENE 5.0 mph 14.0 mph 36% 0.00 in FEW
19:00 35.5 °F 13.0 °F 30.00 in WSW 1.0 mph 6.0 mph 39% 0.00 in FEW
19:15 34.9 °F 13.0 °F 30.00 in NW 2.0 mph 9.0 mph 40% 0.00 in CLR
19:30 34.7 °F 11.6 °F 30.01 in NE 1.0 mph 12.0 mph 38% 0.00 in CLR
19:45 34.2 °F 11.8 °F 30.02 in NNW 3.0 mph 11.0 mph 39% 0.00 in CLR
20:00 33.7 °F 11.9 °F 30.03 in North 1.0 mph 12.0 mph 40% 0.00 in CLR
20:15 33.5 °F 11.7 °F 30.04 in North 1.0 mph 8.0 mph 40% 0.00 in CLR
20:30 33.1 °F 11.9 °F 30.05 in WNW 3.0 mph 9.0 mph 41% 0.00 in CLR
20:45 32.9 °F 11.7 °F 30.06 in NNE 5.0 mph 12.0 mph 41% 0.00 in CLR
21:00 32.7 °F 11.6 °F 30.07 in NNE 5.0 mph 12.0 mph 41% 0.00 in CLR
21:15 32.3 °F 11.2 °F 30.08 in NNW 1.0 mph 13.0 mph 41% 0.00 in CLR
21:30 31.8 °F 12.4 °F 30.09 in NNE 2.0 mph 12.0 mph 44% 0.00 in CLR
21:45 31.6 °F 12.2 °F 30.10 in NNE 1.0 mph 13.0 mph 44% 0.00 in CLR
22:00 31.3 °F 12.9 °F 30.11 in NE 2.0 mph 8.0 mph 46% 0.00 in CLR
22:15 31.1 °F 12.7 °F 30.11 in NNW 1.0 mph 12.0 mph 46% 0.00 in CLR
22:30 31.0 °F 13.1 °F 30.12 in NNW 2.0 mph 9.0 mph 47% 0.00 in CLR
23:00 30.7 °F 13.8 °F 30.13 in NNE 1.0 mph 10.0 mph 49% 0.00 in CLR
23:15 30.5 °F 14.0 °F 30.13 in SW 1.0 mph 8.0 mph 50% 0.00 in CLR
23:30 30.4 °F 14.4 °F 30.13 in WNW 2.0 mph 8.0 mph 51% 0.00 in CLR
23:45 30.2 °F 14.7 °F 30.13 in SSE 2.0 mph 7.0 mph 52% 0.00 in CLR
TarryTown NY Weather
Compliments of Weather Underground - 1.5 mb